Time;durP1;ratioP1;P1;durP2;ratioP2;P2;SDS_P1;SDS_P2;PMS_P1;PMS_P2;Temp;Humidity;BMP_temperature;BMP_pressure;BME280_temperature;BME280_humidity;BME280_pressure;Samples;Min_cycle;Max_cycle;Signal;HPM_P1;HPM_P2
2022/03/04 00:02:16;;;;;;;70.50;43.50;;;;;;;-1.39;69.77;96633.23;107425;1273;207665;-74
2022/03/04 00:04:47;;;;;;;66.10;43.30;;;;;;;-1.40;69.71;96633.28;107621;1273;34231;-74
2022/03/04 00:07:18;;;;;;;68.80;42.70;;;;;;;-1.42;69.74;96635.86;107570;1273;52244;-74
2022/03/04 00:09:48;;;;;;;68.00;40.60;;;;;;;-1.43;69.78;96639.45;107563;1273;48865;-74
2022/03/04 00:12:19;;;;;;;64.40;40.10;;;;;;;-1.44;69.78;96640.54;107561;1273;41751;-74
2022/03/04 00:14:50;;;;;;;64.30;40.30;;;;;;;-1.46;69.83;96642.31;107563;1273;43304;-74
2022/03/04 00:17:21;;;;;;;59.10;38.80;;;;;;;-1.46;69.91;96640.06;107604;1272;60164;-74
2022/03/04 00:19:52;;;;;;;62.50;41.40;;;;;;;-1.48;70.09;96636.48;107517;1273;57893;-74
2022/03/04 00:22:23;;;;;;;58.50;40.40;;;;;;;-1.46;69.93;96637.91;107547;1273;40838;-74
2022/03/04 00:24:54;;;;;;;62.00;38.70;;;;;;;-1.44;70.09;96638.30;107565;1273;39385;-74
2022/03/04 00:27:25;;;;;;;54.80;35.70;;;;;;;-1.45;70.14;96636.46;107524;1273;47545;-75
2022/03/04 00:29:56;;;;;;;55.80;36.00;;;;;;;-1.50;70.05;96633.27;107576;1273;41174;-74
2022/03/04 00:32:27;;;;;;;59.60;38.70;;;;;;;-1.55;70.00;96630.13;107558;1273;34455;-74
2022/03/04 00:34:58;;;;;;;64.50;38.70;;;;;;;-1.56;69.97;96628.59;107627;1273;40234;-74
2022/03/04 00:37:29;;;;;;;53.50;34.40;;;;;;;-1.53;70.08;96626.85;107589;1273;48879;-74
2022/03/04 00:40:00;;;;;;;56.60;35.30;;;;;;;-1.52;70.15;96629.97;107608;1273;47215;-74
2022/03/04 00:42:31;;;;;;;56.40;37.30;;;;;;;-1.51;70.13;96628.09;107618;1273;45878;-74
2022/03/04 00:45:02;;;;;;;64.30;39.10;;;;;;;-1.48;70.22;96629.11;107613;1273;29929;-74
2022/03/04 00:47:33;;;;;;;56.50;37.10;;;;;;;-1.47;70.15;96625.71;107642;1273;39298;-74
2022/03/04 00:50:04;;;;;;;58.50;36.70;;;;;;;-1.48;70.41;96623.99;107685;1274;32167;-74
2022/03/04 00:52:35;;;;;;;61.60;37.60;;;;;;;-1.47;70.02;96626.08;107570;1273;29680;-74
2022/03/04 00:55:07;;;;;;;59.00;38.50;;;;;;;-1.50;70.08;96623.40;107598;1273;32985;-75
2022/03/04 00:57:39;;;;;;;67.60;40.60;;;;;;;-1.50;70.11;96623.40;107649;1273;43462;-75
2022/03/04 01:00:11;;;;;;;64.70;40.50;;;;;;;-1.48;70.13;96619.91;107564;1273;34988;-74
2022/03/04 01:02:42;;;;;;;63.80;38.30;;;;;;;-1.46;70.33;96623.15;107625;1273;39220;-75
2022/03/04 01:05:13;;;;;;;62.30;40.60;;;;;;;-1.47;70.18;96622.04;107557;1273;41330;-74
2022/03/04 01:07:44;;;;;;;61.20;38.70;;;;;;;-1.47;70.41;96620.44;107579;1273;51223;-74
2022/03/04 01:10:16;;;;;;;61.20;40.20;;;;;;;-1.44;70.41;96620.27;107607;1273;45331;-75
2022/03/04 01:12:47;;;;;;;64.70;40.20;;;;;;;-1.43;70.26;96617.41;107618;1273;39395;-74
2022/03/04 01:15:18;;;;;;;67.50;40.90;;;;;;;-1.41;70.34;96619.02;107592;1273;29982;-74
2022/03/04 01:17:50;;;;;;;58.20;37.60;;;;;;;-1.41;70.48;96615.49;107574;1273;30931;-74
2022/03/04 01:20:20;;;;;;;57.70;35.30;;;;;;;-1.43;70.15;96617.30;107575;1273;41163;-75
2022/03/04 01:22:51;;;;;;;54.90;34.50;;;;;;;-1.45;70.43;96611.30;107604;1273;35666;-74
2022/03/04 01:25:23;;;;;;;53.10;34.00;;;;;;;-1.47;70.07;96614.95;107623;1273;30929;-74
2022/03/04 01:28:13;;;;;;;55.90;37.10;;;;;;;-1.51;70.39;96614.61;107641;1273;39747;-75
2022/03/04 01:30:44;;;;;;;52.80;35.20;;;;;;;-1.52;70.31;96615.09;107569;1273;33338;-74
2022/03/04 01:33:15;;;;;;;53.30;34.20;;;;;;;-1.54;70.43;96608.93;107444;1274;41946;-74
2022/03/04 01:35:46;;;;;;;56.50;35.90;;;;;;;-1.56;70.13;96615.95;107587;1273;28775;-74
2022/03/04 01:38:17;;;;;;;58.30;35.30;;;;;;;-1.58;70.32;96611.52;107586;1273;33998;-74
2022/03/04 01:40:48;;;;;;;50.80;32.80;;;;;;;-1.60;70.31;96611.52;107564;1273;39374;-74
2022/03/04 01:43:19;;;;;;;54.00;35.00;;;;;;;-1.61;70.45;96608.65;107621;1274;34378;-74
2022/03/04 01:45:50;;;;;;;53.20;31.10;;;;;;;-1.60;70.46;96606.92;107559;1273;36033;-74
2022/03/04 01:48:22;;;;;;;53.50;34.90;;;;;;;-1.64;70.30;96606.77;107559;1273;38773;-74
2022/03/04 01:50:54;;;;;;;55.40;33.70;;;;;;;-1.69;70.24;96604.88;107566;1273;41041;-74
2022/03/04 01:53:25;;;;;;;57.90;35.80;;;;;;;-1.70;70.34;96605.80;107591;1273;42121;-74
2022/03/04 01:55:56;;;;;;;56.40;35.60;;;;;;;-1.71;70.56;96609.05;107586;1273;43824;-74
2022/03/04 01:58:27;;;;;;;58.40;36.50;;;;;;;-1.71;70.35;96606.96;107585;1273;51239;-74
2022/03/04 02:00:58;;;;;;;55.80;35.60;;;;;;;-1.66;70.53;96607.39;107553;1272;58960;-74
2022/03/04 02:03:29;;;;;;;51.60;32.60;;;;;;;-1.66;70.48;96605.49;107573;1273;44951;-74
2022/03/04 02:06:00;;;;;;;54.70;35.90;;;;;;;-1.74;70.59;96606.17;107383;1270;256527;-74
2022/03/04 02:08:31;;;;;;;51.30;33.50;;;;;;;-1.81;70.69;96604.23;107620;1273;39714;-74
2022/03/04 02:11:02;;;;;;;56.80;36.50;;;;;;;-1.82;70.59;96600.59;107626;1273;40263;-74
2022/03/04 02:13:34;;;;;;;51.50;33.10;;;;;;;-1.83;70.76;96599.70;107636;1273;42988;-74
2022/03/04 02:16:09;;;;;;;55.90;32.80;;;;;;;-1.81;70.78;96602.73;107632;1273;32539;-74
2022/03/04 02:18:40;;;;;;;49.80;31.50;;;;;;;-1.77;70.70;96602.30;107434;1273;184150;-75
2022/03/04 02:21:14;;;;;;;46.50;30.50;;;;;;;-1.78;70.69;96602.78;107546;1273;44645;-74
2022/03/04 02:23:45;;;;;;;46.40;29.80;;;;;;;-1.82;70.69;96602.98;107685;1273;32976;-74
2022/03/04 02:26:16;;;;;;;48.00;30.90;;;;;;;-1.82;70.62;96601.63;107511;1273;80840;-74
2022/03/04 02:28:47;;;;;;;42.90;27.10;;;;;;;-1.83;70.55;96604.14;107616;1273;33283;-74
2022/03/04 02:31:20;;;;;;;46.40;30.30;;;;;;;-1.83;70.72;96606.48;107569;1273;29305;-74
2022/03/04 02:33:51;;;;;;;44.00;29.30;;;;;;;-1.85;70.60;96608.85;107542;1273;31266;-74
2022/03/04 02:36:22;;;;;;;48.10;30.00;;;;;;;-1.88;70.96;96611.65;107557;1272;46776;-74
2022/03/04 02:38:53;;;;;;;42.90;25.00;;;;;;;-1.96;71.11;96608.14;107630;1273;29143;-74
2022/03/04 02:41:24;;;;;;;54.20;34.70;;;;;;;-2.01;71.80;96606.08;107500;1273;157465;-75
2022/03/04 02:43:55;;;;;;;52.80;33.00;;;;;;;-2.06;71.53;96604.81;107624;1273;36217;-74
2022/03/04 02:46:26;;;;;;;56.50;34.80;;;;;;;-2.07;71.93;96608.92;107567;1273;38721;-74
2022/03/04 02:48:57;;;;;;;57.20;34.30;;;;;;;-2.12;72.15;96610.55;107633;1273;30147;-74
2022/03/04 02:51:28;;;;;;;48.60;31.30;;;;;;;-2.13;72.16;96611.43;107636;1273;36183;-74
2022/03/04 02:53:59;;;;;;;45.00;27.80;;;;;;;-2.10;71.86;96617.91;107625;1273;34082;-74
2022/03/04 02:56:30;;;;;;;55.90;36.20;;;;;;;-2.08;72.18;96613.45;107559;1273;33969;-74
2022/03/04 02:59:01;;;;;;;51.20;33.30;;;;;;;-2.10;72.04;96615.05;107594;1273;40860;-74
2022/03/04 03:01:32;;;;;;;56.30;35.50;;;;;;;-2.10;72.28;96609.77;107581;1273;42604;-74
2022/03/04 03:04:03;;;;;;;54.50;35.70;;;;;;;-2.09;72.18;96612.64;107607;1273;42323;-74
2022/03/04 03:06:34;;;;;;;55.10;35.60;;;;;;;-2.09;72.15;96610.77;107659;1273;42577;-74
2022/03/04 03:09:05;;;;;;;45.70;26.80;;;;;;;-2.12;72.24;96612.95;107602;1275;37434;-74
2022/03/04 03:11:36;;;;;;;60.90;36.60;;;;;;;-2.15;72.81;96616.61;107582;1273;46501;-75
2022/03/04 03:14:07;;;;;;;54.70;35.70;;;;;;;-2.15;72.44;96610.19;107602;1273;34961;-74
2022/03/04 03:16:38;;;;;;;53.50;33.60;;;;;;;-2.13;72.50;96611.27;107595;1273;44033;-74
2022/03/04 03:19:09;;;;;;;53.80;33.30;;;;;;;-2.13;72.63;96611.42;107596;1272;44048;-74
2022/03/04 03:21:41;;;;;;;63.50;37.90;;;;;;;-2.13;72.57;96610.02;107605;1273;31884;-74
2022/03/04 03:24:11;;;;;;;61.90;34.40;;;;;;;-2.15;72.54;96616.66;107564;1273;37301;-74
2022/03/04 03:26:42;;;;;;;57.10;34.80;;;;;;;-2.17;72.67;96614.14;107471;1274;37244;-74
2022/03/04 03:29:13;;;;;;;52.60;30.00;;;;;;;-2.17;72.62;96616.77;107558;1273;52111;-74
2022/03/04 03:31:44;;;;;;;55.60;32.60;;;;;;;-2.16;72.63;96622.57;107571;1275;30939;-74
2022/03/04 03:34:15;;;;;;;56.50;30.20;;;;;;;-2.15;72.56;96624.12;107601;1273;36372;-74
2022/03/04 03:36:46;;;;;;;55.10;31.50;;;;;;;-2.11;72.42;96625.70;107560;1273;32191;-74
2022/03/04 03:39:16;;;;;;;45.20;28.70;;;;;;;-2.07;72.43;96629.34;107562;1275;41767;-74
2022/03/04 03:41:47;;;;;;;52.80;31.00;;;;;;;-2.05;72.52;96628.90;107582;1273;32416;-74
2022/03/04 03:44:18;;;;;;;49.50;31.90;;;;;;;-2.03;72.21;96631.50;107587;1273;29446;-74
2022/03/04 03:46:49;;;;;;;49.50;30.90;;;;;;;-2.06;72.15;96625.23;107598;1273;32368;-74
2022/03/04 03:49:21;;;;;;;51.70;32.30;;;;;;;-2.06;72.04;96628.66;107587;1274;29750;-74
2022/03/04 03:51:55;;;;;;;53.40;31.80;;;;;;;-2.01;72.10;96633.58;107630;1275;34970;-74
2022/03/04 03:54:26;;;;;;;44.80;27.20;;;;;;;-1.96;72.12;96638.31;107569;1274;40968;-74
2022/03/04 03:56:57;;;;;;;50.50;33.20;;;;;;;-1.96;72.22;96639.83;107543;1273;41795;-74
2022/03/04 03:59:28;;;;;;;53.70;33.90;;;;;;;-2.02;72.36;96636.54;107556;1274;33396;-74
2022/03/04 04:01:59;;;;;;;53.50;33.40;;;;;;;-2.05;72.64;96636.70;107606;1273;30214;-74
2022/03/04 04:04:34;;;;;;;51.00;32.50;;;;;;;-2.08;72.88;96633.66;107431;1274;35469;-74
2022/03/04 04:07:06;;;;;;;44.00;28.00;;;;;;;-2.15;73.22;96631.76;107611;1276;35573;-74
2022/03/04 04:09:37;;;;;;;55.50;35.30;;;;;;;-2.23;73.63;96629.56;107543;1273;40797;-74
2022/03/04 04:12:10;;;;;;;49.50;30.90;;;;;;;-2.27;73.50;96631.02;107601;1275;47739;-74
2022/03/04 04:14:41;;;;;;;47.40;28.20;;;;;;;-2.25;73.75;96631.85;107666;1273;31477;-74
2022/03/04 04:17:12;;;;;;;49.20;29.70;;;;;;;-2.29;74.17;96627.17;107603;1273;32212;-74
2022/03/04 04:19:43;;;;;;;43.30;26.90;;;;;;;-2.32;74.05;96630.21;107550;1273;41605;-75
2022/03/04 04:22:13;;;;;;;39.70;24.80;;;;;;;-2.34;74.27;96626.77;107555;1274;43101;-74
2022/03/04 04:24:44;;;;;;;50.00;31.50;;;;;;;-2.37;74.42;96632.92;107487;1274;48010;-74
2022/03/04 04:27:15;;;;;;;45.60;29.50;;;;;;;-2.37;74.61;96635.01;107601;1273;39218;-74
2022/03/04 04:29:46;;;;;;;44.20;26.10;;;;;;;-2.36;74.48;96634.36;107561;1273;39972;-74
2022/03/04 04:32:17;;;;;;;37.20;24.80;;;;;;;-2.35;74.57;96642.72;107533;1273;32883;-74
2022/03/04 04:34:47;;;;;;;43.40;27.10;;;;;;;-2.36;74.50;96644.58;107572;1273;40482;-74
2022/03/04 04:37:18;;;;;;;42.30;27.30;;;;;;;-2.35;74.68;96641.98;107553;1273;40220;-74
2022/03/04 04:39:49;;;;;;;40.70;26.40;;;;;;;-2.36;74.46;96646.23;107594;1273;34001;-74
2022/03/04 04:42:21;;;;;;;48.80;30.00;;;;;;;-2.36;74.66;96644.88;107630;1273;41814;-74
2022/03/04 04:44:52;;;;;;;50.20;30.10;;;;;;;-2.35;74.60;96641.67;107607;1273;41457;-74
2022/03/04 04:47:22;;;;;;;42.50;27.20;;;;;;;-2.36;74.56;96643.11;107570;1273;63387;-74
2022/03/04 04:49:53;;;;;;;47.00;27.90;;;;;;;-2.36;74.60;96643.88;107603;1273;32916;-74
2022/03/04 04:52:25;;;;;;;49.40;31.50;;;;;;;-2.36;74.65;96642.15;107599;1273;41620;-74
2022/03/04 04:54:56;;;;;;;47.40;30.40;;;;;;;-2.34;74.50;96643.75;107602;1273;31687;-74
2022/03/04 04:57:27;;;;;;;49.20;30.70;;;;;;;-2.34;74.59;96639.84;107580;1273;41735;-74
2022/03/04 04:59:58;;;;;;;50.30;31.20;;;;;;;-2.33;74.56;96643.79;107609;1272;54685;-74
2022/03/04 05:02:29;;;;;;;40.40;27.20;;;;;;;-2.31;74.61;96644.55;107559;1273;41729;-74
2022/03/04 05:05:00;;;;;;;40.90;23.90;;;;;;;-2.33;74.79;96645.75;107552;1273;41991;-74
2022/03/04 05:07:32;;;;;;;44.50;26.70;;;;;;;-2.39;75.04;96647.10;107663;1272;44262;-74
2022/03/04 05:10:03;;;;;;;42.70;25.60;;;;;;;-2.42;75.01;96650.98;107643;1273;30753;-74
2022/03/04 05:12:34;;;;;;;43.50;25.40;;;;;;;-2.44;75.33;96656.73;107684;1273;29201;-74
2022/03/04 05:15:06;;;;;;;51.90;30.90;;;;;;;-2.45;75.09;96655.69;107673;1273;28519;-74
2022/03/04 05:17:38;;;;;;;41.50;23.20;;;;;;;-2.45;75.17;96656.17;107583;1273;36200;-74
2022/03/04 05:20:10;;;;;;;37.70;22.90;;;;;;;-2.45;75.26;96659.81;107593;1273;42385;-74
2022/03/04 05:22:41;;;;;;;45.70;27.50;;;;;;;-2.45;75.26;96666.52;107724;1273;35505;-74
2022/03/04 05:25:14;;;;;;;40.80;26.30;;;;;;;-2.44;75.29;96672.66;107612;1273;30518;-74
2022/03/04 05:27:46;;;;;;;45.70;26.80;;;;;;;-2.44;75.28;96676.42;107594;1273;28975;-74
2022/03/04 05:30:17;;;;;;;37.00;22.40;;;;;;;-2.43;75.45;96674.79;107630;1273;43299;-74
2022/03/04 05:32:48;;;;;;;44.00;29.30;;;;;;;-2.43;75.40;96676.66;107570;1273;29574;-74
2022/03/04 05:35:19;;;;;;;45.00;27.30;;;;;;;-2.41;75.27;96674.38;107632;1273;31580;-74
2022/03/04 05:37:50;;;;;;;34.80;20.80;;;;;;;-2.40;75.09;96677.55;107570;1273;42103;-74
2022/03/04 05:40:21;;;;;;;43.10;26.60;;;;;;;-2.40;75.56;96680.70;107534;1273;48453;-74
2022/03/04 05:42:52;;;;;;;43.30;27.70;;;;;;;-2.40;75.36;96682.71;107559;1273;39399;-74
2022/03/04 05:45:23;;;;;;;47.70;29.90;;;;;;;-2.40;75.31;96685.45;107578;1273;42155;-74
2022/03/04 05:47:54;;;;;;;45.10;28.80;;;;;;;-2.39;75.53;96682.67;107532;1273;61266;-74
2022/03/04 05:50:25;;;;;;;37.20;23.10;;;;;;;-2.40;75.57;96686.17;107594;1273;43334;-74
2022/03/04 05:52:56;;;;;;;43.20;26.00;;;;;;;-2.40;75.64;96690.02;107580;1273;40616;-74
2022/03/04 05:55:27;;;;;;;44.20;27.30;;;;;;;-2.42;75.82;96686.56;107557;1274;42958;-74
2022/03/04 05:57:58;;;;;;;44.40;28.90;;;;;;;-2.42;75.91;96687.68;107644;1273;33640;-74
2022/03/04 06:00:30;;;;;;;47.00;27.00;;;;;;;-2.42;75.92;96684.73;107608;1273;33092;-74
2022/03/04 06:03:00;;;;;;;36.30;22.30;;;;;;;-2.42;76.08;96688.48;107545;1273;42275;-74
2022/03/04 06:05:32;;;;;;;48.80;28.80;;;;;;;-2.42;76.17;96696.52;107673;1274;43675;-74
2022/03/04 06:08:03;;;;;;;48.50;28.30;;;;;;;-2.41;76.20;96698.43;107638;1274;32468;-74
2022/03/04 06:10:34;;;;;;;46.50;29.20;;;;;;;-2.39;76.04;96697.33;107572;1274;42304;-74
2022/03/04 06:13:05;;;;;;;48.20;29.10;;;;;;;-2.35;76.01;96699.79;107623;1274;45046;-74
2022/03/04 06:15:36;;;;;;;37.40;23.30;;;;;;;-2.33;76.06;96703.23;107601;1274;32602;-74
2022/03/04 06:18:08;;;;;;;28.70;17.20;;;;;;;-2.35;76.18;96708.41;107541;1273;83898;-74
2022/03/04 06:20:39;;;;;;;26.30;16.40;;;;;;;-2.35;76.44;96711.45;107650;1274;30009;-74
2022/03/04 06:23:11;;;;;;;37.20;22.40;;;;;;;-2.36;76.73;96717.27;107604;1274;39412;-74
2022/03/04 06:25:42;;;;;;;32.50;17.30;;;;;;;-2.37;77.07;96720.63;107593;1274;34450;-74
2022/03/04 06:28:13;;;;;;;45.30;26.80;;;;;;;-2.38;77.07;96722.18;107553;1274;63772;-74
2022/03/04 06:30:46;;;;;;;39.80;25.30;;;;;;;-2.37;77.28;96721.20;107581;1274;49520;-74
2022/03/04 06:33:32;;;;;;;46.20;29.00;;;;;;;-2.37;77.33;96724.34;107585;1274;34958;-74
2022/03/04 06:36:05;;;;;;;40.50;25.60;;;;;;;-2.35;77.27;96726.07;107537;1273;117294;-74
2022/03/04 06:38:38;;;;;;;37.80;22.40;;;;;;;-2.34;77.58;96727.31;107577;1273;47519;-74
2022/03/04 06:41:09;;;;;;;42.90;27.40;;;;;;;-2.32;77.50;96731.91;107559;1274;43781;-74
2022/03/04 06:43:41;;;;;;;30.50;18.20;;;;;;;-2.29;77.62;96733.15;107595;1274;43904;-74
2022/03/04 06:46:12;;;;;;;41.20;25.60;;;;;;;-2.30;77.63;96732.75;107571;1274;44027;-74
2022/03/04 06:48:44;;;;;;;44.50;27.90;;;;;;;-2.31;77.66;96732.78;107528;1274;72495;-74
2022/03/04 06:51:15;;;;;;;46.30;26.80;;;;;;;-2.30;77.66;96732.71;107489;1274;40298;-74
2022/03/04 06:53:45;;;;;;;32.20;19.20;;;;;;;-2.29;77.85;96733.31;107568;1274;41245;-74
2022/03/04 06:56:19;;;;;;;40.80;25.30;;;;;;;-2.30;77.90;96735.82;107543;1274;44094;-74
2022/03/04 06:58:50;;;;;;;40.90;23.40;;;;;;;-2.28;77.91;96733.39;107543;1274;45050;-74
2022/03/04 07:01:22;;;;;;;40.00;25.50;;;;;;;-2.27;78.19;96738.75;107436;1274;47943;-74
2022/03/04 07:03:53;;;;;;;38.90;23.00;;;;;;;-2.27;78.37;96735.98;107587;1274;38949;-74
2022/03/04 07:06:25;;;;;;;47.20;29.60;;;;;;;-2.27;78.41;96734.47;107587;1274;32353;-74
2022/03/04 07:08:56;;;;;;;42.30;28.40;;;;;;;-2.25;78.28;96733.26;107523;1274;44884;-74
2022/03/04 07:11:27;;;;;;;43.70;26.70;;;;;;;-2.20;78.40;96740.66;107572;1274;52098;-74
2022/03/04 07:13:58;;;;;;;32.40;19.20;;;;;;;-2.17;78.39;96736.64;107583;1274;32645;-74
2022/03/04 07:16:29;;;;;;;49.70;30.50;;;;;;;-2.17;78.48;96736.98;107572;1274;28047;-74
2022/03/04 07:19:01;;;;;;;45.70;28.20;;;;;;;-2.19;78.52;96736.44;107542;1274;29794;-74
2022/03/04 07:21:32;;;;;;;44.00;27.30;;;;;;;-2.17;78.70;96736.40;107512;1274;56888;-74
2022/03/04 07:24:03;;;;;;;42.30;26.60;;;;;;;-2.15;78.48;96739.91;107655;1273;41694;-74
2022/03/04 07:26:34;;;;;;;48.50;31.10;;;;;;;-2.08;78.62;96739.08;107655;1274;37967;-74
2022/03/04 07:29:04;;;;;;;44.60;27.10;;;;;;;-2.05;78.64;96745.15;107639;1273;43860;-74
2022/03/04 07:31:35;;;;;;;41.50;24.30;;;;;;;-2.01;78.66;96741.67;107611;1274;40029;-73
2022/03/04 07:34:06;;;;;;;46.90;30.00;;;;;;;-1.96;78.60;96742.42;107569;1274;42239;-75
2022/03/04 07:36:38;;;;;;;45.70;28.70;;;;;;;-1.87;78.69;96741.95;107605;1274;34518;-74
2022/03/04 07:39:08;;;;;;;43.00;29.00;;;;;;;-1.73;78.67;96741.23;107602;1273;30164;-74
2022/03/04 07:41:40;;;;;;;42.40;25.90;;;;;;;-1.65;78.59;96742.01;107580;1274;35054;-74
2022/03/04 07:44:11;;;;;;;49.00;31.20;;;;;;;-1.64;78.44;96741.52;107568;1274;46013;-74
2022/03/04 07:46:42;;;;;;;46.10;29.40;;;;;;;-1.59;78.17;96742.02;107620;1273;32261;-74
2022/03/04 07:49:13;;;;;;;42.80;28.00;;;;;;;-1.48;78.34;96750.91;107550;1274;46565;-74
2022/03/04 07:51:45;;;;;;;47.30;30.40;;;;;;;-1.38;78.16;96748.52;107602;1273;30892;-74
2022/03/04 07:54:18;;;;;;;48.00;30.00;;;;;;;-1.33;77.84;96748.55;107655;1274;47687;-74
2022/03/04 07:56:49;;;;;;;46.40;29.80;;;;;;;-1.24;78.05;96756.40;107567;1274;38378;-74
2022/03/04 07:59:20;;;;;;;44.20;28.30;;;;;;;-1.19;77.66;96750.27;107646;1274;38042;-73
2022/03/04 08:01:51;;;;;;;39.50;26.20;;;;;;;-1.13;77.60;96752.98;107594;1273;35025;-74
2022/03/04 08:04:22;;;;;;;40.00;25.30;;;;;;;-1.07;77.26;96758.20;107634;1273;38476;-74
2022/03/04 08:06:53;;;;;;;42.40;25.00;;;;;;;-1.05;77.18;96754.84;107607;1274;49952;-73
2022/03/04 08:09:24;;;;;;;37.50;24.90;;;;;;;-0.99;77.01;96755.23;107514;1273;39226;-74
2022/03/04 08:11:55;;;;;;;38.00;24.70;;;;;;;-0.91;77.29;96755.59;107589;1273;40496;-74
2022/03/04 08:14:26;;;;;;;41.70;26.20;;;;;;;-0.84;76.97;96761.46;107593;1273;41789;-74
2022/03/04 08:16:57;;;;;;;40.30;25.70;;;;;;;-0.78;76.95;96760.21;107571;1274;38429;-73
2022/03/04 08:19:28;;;;;;;38.50;25.80;;;;;;;-0.68;76.88;96765.77;107595;1274;56555;-73
2022/03/04 08:21:59;;;;;;;42.20;25.20;;;;;;;-0.59;76.72;96764.18;107565;1273;45405;-74
2022/03/04 08:24:30;;;;;;;36.60;24.30;;;;;;;-0.50;76.81;96765.89;107611;1273;36470;-74
2022/03/04 08:27:01;;;;;;;39.10;23.20;;;;;;;-0.40;76.66;96768.71;107588;1273;43803;-74
2022/03/04 08:29:32;;;;;;;37.50;23.10;;;;;;;-0.34;76.56;96774.46;107636;1271;32335;-74
2022/03/04 08:32:03;;;;;;;38.90;24.30;;;;;;;-0.30;76.23;96777.08;107568;1273;41330;-73
2022/03/04 08:34:34;;;;;;;42.80;26.70;;;;;;;-0.27;76.22;96777.73;107676;1273;29731;-74
2022/03/04 08:37:05;;;;;;;38.70;24.90;;;;;;;-0.29;75.77;96785.30;107616;1273;40344;-73
2022/03/04 08:39:36;;;;;;;36.50;24.90;;;;;;;-0.31;75.37;96781.82;107619;1273;30948;-74
2022/03/04 08:42:08;;;;;;;37.50;25.50;;;;;;;-0.27;75.51;96784.59;107575;1273;31280;-74
2022/03/04 08:44:39;;;;;;;38.70;25.00;;;;;;;-0.25;75.46;96778.25;107554;1273;48318;-74
2022/03/04 08:47:10;;;;;;;39.40;25.40;;;;;;;-0.16;75.75;96778.33;107596;1273;34733;-74
2022/03/04 08:49:42;;;;;;;49.20;29.70;;;;;;;-0.08;75.35;96779.86;107618;1273;26829;-74
2022/03/04 08:52:13;;;;;;;42.20;26.00;;;;;;;-0.02;75.15;96780.68;107599;1271;39687;-74
2022/03/04 08:54:44;;;;;;;39.20;26.40;;;;;;;0.04;74.98;96781.83;107573;1273;38518;-74
2022/03/04 08:57:16;;;;;;;38.90;25.90;;;;;;;0.07;75.10;96782.54;107618;1273;30250;-74
2022/03/04 08:59:47;;;;;;;39.30;25.80;;;;;;;0.14;75.18;96785.46;107561;1273;40632;-74
2022/03/04 09:02:19;;;;;;;38.20;24.80;;;;;;;0.16;74.83;96785.83;107603;1273;39853;-74
2022/03/04 09:04:50;;;;;;;41.50;26.90;;;;;;;0.19;74.97;96785.13;107643;1273;36213;-74
2022/03/04 09:07:22;;;;;;;39.30;25.20;;;;;;;0.26;74.82;96787.81;107621;1272;27939;-74
2022/03/04 09:09:53;;;;;;;36.30;24.00;;;;;;;0.36;74.83;96793.02;107667;1272;30703;-73
2022/03/04 09:12:25;;;;;;;37.60;24.90;;;;;;;0.43;74.74;96791.79;107601;1273;32343;-74
2022/03/04 09:14:55;;;;;;;42.20;25.80;;;;;;;0.34;74.38;96790.54;107637;1274;33122;-74
2022/03/04 09:17:28;;;;;;;39.40;24.90;;;;;;;0.30;74.27;96796.50;107575;1273;84895;-74
2022/03/04 09:19:59;;;;;;;37.30;24.50;;;;;;;0.35;74.22;96796.84;107580;1273;42392;-74
2022/03/04 09:22:30;;;;;;;42.10;26.20;;;;;;;0.35;74.33;96801.29;107502;1274;79087;-74
2022/03/04 09:25:01;;;;;;;39.50;26.10;;;;;;;0.37;74.41;96805.57;107494;1274;39076;-73
2022/03/04 09:27:33;;;;;;;43.50;26.60;;;;;;;0.40;74.39;96802.94;107637;1273;34128;-74
2022/03/04 09:30:06;;;;;;;38.50;25.30;;;;;;;0.41;74.28;96803.11;107630;1273;43077;-74
2022/03/04 09:32:37;;;;;;;39.40;26.10;;;;;;;0.43;74.20;96805.73;106471;1274;1479868;-74
2022/03/04 09:35:09;;;;;;;39.30;26.90;;;;;;;0.45;74.19;96803.25;107573;1273;38075;-74
2022/03/04 09:37:41;;;;;;;40.10;26.00;;;;;;;0.48;74.27;96801.63;107554;1273;51857;-74
2022/03/04 09:40:13;;;;;;;38.10;27.10;;;;;;;0.53;74.30;96805.63;107575;1273;39915;-74
2022/03/04 09:42:45;;;;;;;38.60;25.40;;;;;;;0.54;74.04;96808.64;107583;1272;44575;-74
2022/03/04 09:45:16;;;;;;;38.30;26.10;;;;;;;0.61;73.99;96806.37;107515;1274;67180;-74
2022/03/04 09:47:48;;;;;;;41.80;26.30;;;;;;;0.62;73.76;96810.17;107567;1274;47072;-73
2022/03/04 09:50:20;;;;;;;38.60;26.50;;;;;;;0.65;73.76;96811.15;107619;1273;39813;-74
2022/03/04 09:52:51;;;;;;;39.40;25.20;;;;;;;0.72;73.55;96809.95;107577;1274;44401;-73
2022/03/04 09:55:22;;;;;;;40.30;27.40;;;;;;;0.67;73.27;96807.92;107486;1274;44435;-73
2022/03/04 09:57:53;;;;;;;41.10;26.80;;;;;;;0.66;73.34;96811.23;107537;1274;42036;-73
2022/03/04 10:00:24;;;;;;;39.10;25.90;;;;;;;0.63;73.12;96812.33;107597;1273;47910;-73
2022/03/04 10:02:55;;;;;;;37.30;25.80;;;;;;;0.46;73.05;96810.55;107492;1274;34826;-73
2022/03/04 10:05:26;;;;;;;34.60;25.30;;;;;;;0.51;73.57;96812.55;107548;1273;50376;-73
2022/03/04 10:07:57;;;;;;;35.70;24.30;;;;;;;0.55;73.50;96813.16;107553;1273;37533;-73
2022/03/04 10:10:28;;;;;;;37.50;25.30;;;;;;;0.56;73.55;96810.45;107569;1274;40166;-73
2022/03/04 10:13:01;;;;;;;43.70;28.40;;;;;;;0.53;73.46;96808.72;107579;1274;40255;-73
2022/03/04 10:15:32;;;;;;;41.30;27.40;;;;;;;0.53;73.68;96811.77;107518;1274;41176;-73
2022/03/04 10:18:06;;;;;;;38.20;24.10;;;;;;;0.49;73.57;96807.91;107600;1273;43502;-73
2022/03/04 10:20:42;;;;;;;33.90;23.50;;;;;;;0.44;73.58;96814.05;107579;1273;33646;-74
2022/03/04 10:23:18;;;;;;;39.30;24.60;;;;;;;0.43;73.22;96816.54;107586;1274;34621;-73
2022/03/04 10:25:51;;;;;;;36.00;23.70;;;;;;;0.44;73.17;96815.05;107613;1274;39460;-73
2022/03/04 10:28:24;;;;;;;36.80;23.90;;;;;;;0.52;73.32;96814.95;107628;1273;28139;-73
2022/03/04 10:30:57;;;;;;;37.60;24.30;;;;;;;0.63;73.21;96814.73;107665;1273;28929;-73
2022/03/04 10:33:30;;;;;;;38.90;25.20;;;;;;;0.65;73.01;96811.87;107569;1273;40426;-73
2022/03/04 10:36:12;;;;;;;37.20;24.10;;;;;;;0.68;73.28;96812.96;107610;1273;27794;-73
2022/03/04 10:38:44;;;;;;;40.00;25.50;;;;;;;0.79;73.34;96809.41;107564;1273;39302;-73
2022/03/04 10:41:26;;;;;;;36.60;24.00;;;;;;;0.84;73.14;96809.58;107648;1273;27390;-73
2022/03/04 10:43:57;;;;;;;33.20;23.00;;;;;;;0.65;72.47;96809.63;107573;1273;43604;-73
2022/03/04 10:46:29;;;;;;;37.20;23.80;;;;;;;0.56;72.62;96810.56;107563;1273;34148;-73
2022/03/04 10:49:00;;;;;;;37.40;23.20;;;;;;;0.72;73.16;96807.61;107547;1273;37882;-73
2022/03/04 10:51:39;;;;;;;36.40;23.80;;;;;;;0.79;72.91;96807.45;107582;1273;38650;-73
2022/03/04 10:54:15;;;;;;;42.50;27.80;;;;;;;0.67;72.54;96808.05;107576;1274;32536;-73
2022/03/04 10:56:55;;;;;;;40.90;26.40;;;;;;;0.52;72.60;96810.79;107567;1272;37084;-73
2022/03/04 10:59:29;;;;;;;38.00;25.40;;;;;;;0.35;72.97;96811.64;107640;1273;34148;-73
2022/03/04 11:02:00;;;;;;;44.80;28.40;;;;;;;0.24;73.26;96812.77;107569;1273;43441;-73
2022/03/04 11:04:31;;;;;;;49.30;29.70;;;;;;;0.12;73.47;96812.17;107585;1273;40994;-73
2022/03/04 11:07:02;;;;;;;47.60;29.20;;;;;;;0.09;73.86;96808.75;107649;1273;35092;-73
2022/03/04 11:09:33;;;;;;;45.50;29.40;;;;;;;0.19;73.90;96810.80;107600;1273;30414;-73
2022/03/04 11:12:05;;;;;;;40.40;27.00;;;;;;;0.24;74.00;96813.46;107510;1274;37664;-73
2022/03/04 11:14:37;;;;;;;35.60;23.20;;;;;;;0.41;73.90;96814.02;107652;1273;35631;-73
2022/03/04 11:17:09;;;;;;;38.50;26.20;;;;;;;0.55;73.32;96809.91;107573;1273;36541;-73
2022/03/04 11:19:40;;;;;;;42.90;27.90;;;;;;;0.55;73.28;96808.75;107604;1273;35953;-73
2022/03/04 11:22:14;;;;;;;43.50;28.20;;;;;;;0.54;73.21;96810.29;107618;1273;39548;-74
2022/03/04 11:24:46;;;;;;;37.40;26.50;;;;;;;0.47;72.98;96809.26;107568;1273;35742;-73
2022/03/04 11:27:20;;;;;;;41.10;26.70;;;;;;;0.45;73.28;96809.55;107632;1273;32207;-73
2022/03/04 11:29:51;;;;;;;42.30;25.00;;;;;;;0.40;73.05;96808.07;107577;1273;47666;-73
2022/03/04 11:32:31;;;;;;;39.20;25.00;;;;;;;0.38;73.10;96811.17;107549;1273;44954;-73